Time;durP1;ratioP1;P1;durP2;ratioP2;P2;SDS_P1;SDS_P2;PMS_P1;PMS_P2;Temp;Humidity;BMP_temperature;BMP_pressure;BME280_temperature;BME280_humidity;BME280_pressure;Samples;Min_cycle;Max_cycle;Signal;HPM_P1;HPM_P2
2022/12/08 00:00:50;;;;;;;;;;;18.40;37.00;;;;;;5095502;28;19948;-65
2022/12/08 00:03:17;;;;;;;;;;;18.40;37.00;;;;;;5092921;28;19919;-66
2022/12/08 00:11:12;;;;;;;;;;;18.30;36.90;;;;;;5108106;27;19927;-65
2022/12/08 00:13:41;;;;;;;;;;;18.40;37.00;;;;;;5114179;27;19927;-65
2022/12/08 00:16:07;;;;;;;;;;;18.40;37.00;;;;;;5096481;28;19919;-65
2022/12/08 00:18:34;;;;;;;;;;;18.30;37.00;;;;;;5096073;28;19919;-65
2022/12/08 00:21:01;;;;;;;;;;;18.30;36.90;;;;;;5111487;28;19931;-65
2022/12/08 00:23:28;;;;;;;;;;;18.30;37.00;;;;;;5100120;27;19923;-65
2022/12/08 00:25:54;;;;;;;;;;;18.30;37.00;;;;;;5119056;27;19969;-65
2022/12/08 00:28:21;;;;;;;;;;;18.30;37.00;;;;;;5117055;27;19919;-65
2022/12/08 00:30:49;;;;;;;;;;;18.30;37.00;;;;;;5135315;27;20246;-65
2022/12/08 00:33:16;;;;;;;;;;;18.30;37.00;;;;;;5134869;27;19927;-65
2022/12/08 00:35:43;;;;;;;;;;;18.30;37.00;;;;;;5116349;27;19919;-65
2022/12/08 00:38:10;;;;;;;;;;;18.20;36.90;;;;;;5109312;28;19919;-65
2022/12/08 00:40:36;;;;;;;;;;;18.30;37.00;;;;;;5132571;27;19919;-66
2022/12/08 00:43:03;;;;;;;;;;;18.20;37.00;;;;;;5097369;28;20273;-65
2022/12/08 00:45:30;;;;;;;;;;;18.30;37.10;;;;;;5096523;28;19942;-65
2022/12/08 00:47:58;;;;;;;;;;;18.20;37.00;;;;;;5096997;28;19920;-66
2022/12/08 00:50:25;;;;;;;;;;;18.20;37.00;;;;;;5124253;27;19919;-67
2022/12/08 00:52:51;;;;;;;;;;;18.20;37.00;;;;;;5118116;27;19953;-65
2022/12/08 00:55:18;;;;;;;;;;;18.20;37.00;;;;;;5100873;28;19920;-65
2022/12/08 00:57:45;;;;;;;;;;;18.20;37.10;;;;;;5114277;27;19919;-65
2022/12/08 01:00:12;;;;;;;;;;;18.20;37.00;;;;;;5116542;27;20289;-65
2022/12/08 01:02:39;;;;;;;;;;;18.20;37.00;;;;;;5115988;27;20018;-66
2022/12/08 01:05:09;;;;;;;;;;;18.20;37.00;;;;;;5109906;28;19927;-65
2022/12/08 01:07:35;;;;;;;;;;;18.20;37.00;;;;;;5098577;28;19919;-64
2022/12/08 01:10:02;;;;;;;;;;;18.20;37.10;;;;;;5113309;28;19920;-65
2022/12/08 01:12:29;;;;;;;;;;;18.20;37.10;;;;;;5094144;28;19924;-65
2022/12/08 01:14:56;;;;;;;;;;;18.10;37.00;;;;;;5113383;28;19919;-66
2022/12/08 01:17:23;;;;;;;;;;;18.10;37.00;;;;;;5096052;28;19920;-65
2022/12/08 01:19:49;;;;;;;;;;;18.10;37.00;;;;;;5094437;28;19969;-66
2022/12/08 01:22:17;;;;;;;;;;;18.10;37.00;;;;;;5097341;28;19920;-65
2022/12/08 01:24:44;;;;;;;;;;;18.10;37.00;;;;;;5112244;28;19919;-65
2022/12/08 01:27:11;;;;;;;;;;;18.10;37.00;;;;;;5098074;28;19920;-65
2022/12/08 01:29:38;;;;;;;;;;;18.10;37.00;;;;;;5111935;27;19919;-65
2022/12/08 01:32:05;;;;;;;;;;;18.10;37.00;;;;;;5115608;27;19919;-65
2022/12/08 01:34:31;;;;;;;;;;;18.10;37.00;;;;;;5114848;27;19923;-65
2022/12/08 01:36:58;;;;;;;;;;;18.10;37.00;;;;;;5115127;27;19976;-65
2022/12/08 01:39:26;;;;;;;;;;;18.10;37.00;;;;;;5114635;27;19920;-65
2022/12/08 01:41:53;;;;;;;;;;;18.10;37.00;;;;;;5115703;27;19919;-65
2022/12/08 01:44:38;;;;;;;;;;;18.10;37.10;;;;;;5106341;28;19951;-66
2022/12/08 01:47:05;;;;;;;;;;;18.10;37.10;;;;;;5115616;28;19945;-65
2022/12/08 01:49:32;;;;;;;;;;;18.10;37.10;;;;;;5094558;28;19931;-65
2022/12/08 01:52:00;;;;;;;;;;;18.10;37.10;;;;;;5103668;27;19919;-65
2022/12/08 01:54:31;;;;;;;;;;;18.10;37.10;;;;;;5115260;27;19919;-66
2022/12/08 01:56:58;;;;;;;;;;;18.10;37.10;;;;;;5102012;28;19920;-65
2022/12/08 01:59:25;;;;;;;;;;;18.10;37.00;;;;;;5114530;27;19964;-64
2022/12/08 02:01:52;;;;;;;;;;;18.10;37.00;;;;;;5117912;27;19924;-65
2022/12/08 02:04:19;;;;;;;;;;;18.10;37.00;;;;;;5093452;28;19973;-66
2022/12/08 02:06:45;;;;;;;;;;;18.00;37.00;;;;;;5095117;28;19920;-64
2022/12/08 02:09:12;;;;;;;;;;;18.00;36.90;;;;;;5095753;28;19923;-65
2022/12/08 02:11:41;;;;;;;;;;;18.00;37.00;;;;;;5095916;28;19920;-64
2022/12/08 02:14:08;;;;;;;;;;;18.00;36.90;;;;;;5095597;28;19973;-66
2022/12/08 02:16:35;;;;;;;;;;;18.00;36.90;;;;;;5097063;28;19973;-65
2022/12/08 02:19:07;;;;;;;;;;;18.00;36.90;;;;;;5096552;27;19930;-66
2022/12/08 02:21:35;;;;;;;;;;;18.00;36.90;;;;;;5094639;28;20320;-65
2022/12/08 02:24:05;;;;;;;;;;;18.00;36.90;;;;;;5092480;28;19928;-66
2022/12/08 02:26:41;;;;;;;;;;;18.00;36.90;;;;;;5094946;28;19920;-65
2022/12/08 02:29:22;;;;;;;;;;;18.00;36.90;;;;;;5095070;28;19934;-65
2022/12/08 02:31:51;;;;;;;;;;;18.00;36.90;;;;;;5130291;27;19930;-65
2022/12/08 02:34:21;;;;;;;;;;;18.00;36.90;;;;;;5104531;27;19981;-65
2022/12/08 02:36:49;;;;;;;;;;;18.00;36.90;;;;;;5111883;28;19977;-66
2022/12/08 02:39:21;;;;;;;;;;;18.00;36.90;;;;;;5113292;28;19919;-65
2022/12/08 02:41:48;;;;;;;;;;;18.00;36.90;;;;;;5094926;28;19935;-65
2022/12/08 02:44:17;;;;;;;;;;;17.90;36.80;;;;;;5108048;27;19968;-65
2022/12/08 02:46:45;;;;;;;;;;;18.00;36.90;;;;;;5117082;27;19920;-66
2022/12/08 02:49:14;;;;;;;;;;;17.90;36.80;;;;;;5131932;27;19927;-64
2022/12/08 02:51:42;;;;;;;;;;;17.90;36.80;;;;;;5096383;28;19919;-65
2022/12/08 02:54:09;;;;;;;;;;;18.00;36.90;;;;;;5094591;28;19927;-65
2022/12/08 02:56:40;;;;;;;;;;;17.90;36.80;;;;;;5098657;28;19920;-65
2022/12/08 02:59:21;;;;;;;;;;;17.90;36.80;;;;;;5112046;28;20261;-65
2022/12/08 03:01:52;;;;;;;;;;;17.90;36.80;;;;;;5091586;28;19920;-65
2022/12/08 03:04:21;;;;;;;;;;;17.90;36.80;;;;;;5095271;28;19919;-64
2022/12/08 03:06:50;;;;;;;;;;;17.90;36.80;;;;;;5112140;28;19924;-65
2022/12/08 03:09:18;;;;;;;;;;;17.90;36.80;;;;;;5125440;28;19927;-65
2022/12/08 03:11:46;;;;;;;;;;;17.90;36.80;;;;;;5131261;28;19919;-65
2022/12/08 03:14:14;;;;;;;;;;;17.90;36.80;;;;;;5097168;28;19927;-66
2022/12/08 03:16:41;;;;;;;;;;;17.90;36.80;;;;;;5094866;28;19941;-66
2022/12/08 03:19:09;;;;;;;;;;;17.90;36.80;;;;;;5109485;28;19919;-66
2022/12/08 03:21:35;;;;;;;;;;;17.90;36.80;;;;;;5106189;28;20007;-65
2022/12/08 03:24:04;;;;;;;;;;;17.90;36.80;;;;;;5110427;28;19942;-65
2022/12/08 03:26:31;;;;;;;;;;;17.90;36.80;;;;;;5112539;28;19965;-63
2022/12/08 03:28:58;;;;;;;;;;;17.90;36.80;;;;;;5095171;28;19919;-65
2022/12/08 03:31:25;;;;;;;;;;;17.90;36.80;;;;;;5094485;28;19924;-66
2022/12/08 03:33:52;;;;;;;;;;;17.90;36.80;;;;;;5093701;28;19920;-66
2022/12/08 03:36:18;;;;;;;;;;;17.90;36.80;;;;;;5093531;28;19919;-66
2022/12/08 03:38:45;;;;;;;;;;;17.90;36.80;;;;;;5096239;28;19919;-65
2022/12/08 03:41:19;;;;;;;;;;;17.90;36.80;;;;;;5095536;28;19920;-66
2022/12/08 03:43:46;;;;;;;;;;;17.90;36.80;;;;;;5113847;27;19920;-66
2022/12/08 03:46:13;;;;;;;;;;;17.90;36.80;;;;;;5100106;28;19930;-66
2022/12/08 03:48:40;;;;;;;;;;;17.90;36.80;;;;;;5099620;28;19973;-65
2022/12/08 03:51:07;;;;;;;;;;;17.80;36.70;;;;;;5119339;27;19924;-66
2022/12/08 03:53:33;;;;;;;;;;;17.80;36.70;;;;;;5117950;27;19920;-66
2022/12/08 03:56:00;;;;;;;;;;;17.80;36.70;;;;;;5121102;27;19927;-65
2022/12/08 03:58:28;;;;;;;;;;;17.80;36.70;;;;;;5118697;27;19926;-64
2022/12/08 04:00:55;;;;;;;;;;;17.80;36.70;;;;;;5120237;27;19924;-64
2022/12/08 04:03:22;;;;;;;;;;;17.80;36.60;;;;;;5121899;27;19974;-64
2022/12/08 04:05:48;;;;;;;;;;;17.80;36.60;;;;;;5122818;27;19920;-65
2022/12/08 04:08:15;;;;;;;;;;;17.80;36.60;;;;;;5123089;27;19923;-65
2022/12/08 04:10:42;;;;;;;;;;;17.80;36.60;;;;;;5096959;28;19923;-65
2022/12/08 04:13:12;;;;;;;;;;;17.80;36.60;;;;;;5097690;28;19920;-65
2022/12/08 04:15:43;;;;;;;;;;;17.80;36.60;;;;;;5131308;27;19920;-64
2022/12/08 04:18:12;;;;;;;;;;;17.80;36.70;;;;;;5099176;28;19924;-65
2022/12/08 04:20:40;;;;;;;;;;;17.80;36.70;;;;;;5097397;28;19970;-65
2022/12/08 04:23:06;;;;;;;;;;;17.80;36.70;;;;;;5098037;28;19951;-65
2022/12/08 04:25:33;;;;;;;;;;;17.70;36.60;;;;;;5097764;28;19919;-65
2022/12/08 04:28:00;;;;;;;;;;;17.80;45.30;;;;;;5117345;28;19920;-64
2022/12/08 04:30:27;;;;;;;;;;;17.80;36.60;;;;;;5113124;28;19920;-64
2022/12/08 04:32:55;;;;;;;;;;;17.80;36.60;;;;;;5117610;28;19931;-65
2022/12/08 04:35:22;;;;;;;;;;;17.80;36.60;;;;;;5097327;28;19920;-65
2022/12/08 04:37:49;;;;;;;;;;;17.70;36.60;;;;;;5097159;28;19973;-65
2022/12/08 04:40:15;;;;;;;;;;;17.80;36.60;;;;;;5098385;28;19920;-66
2022/12/08 04:42:42;;;;;;;;;;;17.80;36.60;;;;;;5115088;28;20357;-64
2022/12/08 04:45:09;;;;;;;;;;;17.70;36.50;;;;;;5098648;28;19920;-65
2022/12/08 04:47:36;;;;;;;;;;;17.70;36.50;;;;;;5115303;28;19920;-64
2022/12/08 04:50:05;;;;;;;;;;;17.70;36.40;;;;;;5099190;28;19965;-65
2022/12/08 04:52:32;;;;;;;;;;;17.70;36.40;;;;;;5113961;28;20295;-65
2022/12/08 04:54:58;;;;;;;;;;;17.70;36.40;;;;;;5096510;28;19927;-65
2022/12/08 04:57:25;;;;;;;;;;;17.70;36.50;;;;;;5114251;28;19923;-65
2022/12/08 04:59:52;;;;;;;;;;;17.70;36.40;;;;;;5098251;28;19955;-64
2022/12/08 05:02:19;;;;;;;;;;;17.70;36.40;;;;;;5096204;28;19924;-64
2022/12/08 05:04:46;;;;;;;;;;;17.70;36.50;;;;;;5098235;28;20018;-64
2022/12/08 05:07:14;;;;;;;;;;;17.70;36.40;;;;;;5096505;28;20377;-65
2022/12/08 05:09:41;;;;;;;;;;;17.70;36.40;;;;;;5098042;28;19923;-64
2022/12/08 05:12:07;;;;;;;;;;;17.70;36.40;;;;;;5095616;28;20365;-64
2022/12/08 05:14:34;;;;;;;;;;;17.70;36.40;;;;;;5096712;28;19927;-66
2022/12/08 05:17:01;;;;;;;;;;;17.70;36.40;;;;;;5096761;28;19969;-65
2022/12/08 05:19:27;;;;;;;;;;;17.70;36.40;;;;;;5114429;28;19965;-64
2022/12/08 05:21:54;;;;;;;;;;;17.70;36.40;;;;;;5100745;27;20426;-65
2022/12/08 05:24:22;;;;;;;;;;;17.70;36.40;;;;;;5114757;27;19919;-64
2022/12/08 05:26:49;;;;;;;;;;;17.70;36.40;;;;;;5117755;27;19945;-65
2022/12/08 05:29:16;;;;;;;;;;;17.70;36.30;;;;;;5116656;27;20299;-65
2022/12/08 05:31:43;;;;;;;;;;;17.70;36.30;;;;;;5116632;27;19934;-65
2022/12/08 05:34:09;;;;;;;;;;;17.70;36.30;;;;;;5115776;27;19920;-64
2022/12/08 05:36:36;;;;;;;;;;;17.70;36.30;;;;;;5116574;27;19920;-65
2022/12/08 05:39:03;;;;;;;;;;;17.70;36.40;;;;;;5135844;27;19944;-65
2022/12/08 05:41:31;;;;;;;;;;;17.70;36.40;;;;;;5110827;28;19922;-66
2022/12/08 05:43:58;;;;;;;;;;;17.70;36.30;;;;;;5098239;28;19923;-65
2022/12/08 05:46:24;;;;;;;;;;;17.70;36.30;;;;;;5097243;28;19975;-64
2022/12/08 05:48:51;;;;;;;;;;;17.60;36.20;;;;;;5097434;28;19935;-65
2022/12/08 05:51:18;;;;;;;;;;;17.70;36.30;;;;;;5112667;28;20268;-65
2022/12/08 05:53:45;;;;;;;;;;;17.60;36.20;;;;;;5113990;28;19942;-64
2022/12/08 05:56:12;;;;;;;;;;;17.60;36.20;;;;;;5095717;28;19927;-66
2022/12/08 05:58:40;;;;;;;;;;;17.60;36.20;;;;;;5096944;28;19920;-64
2022/12/08 06:01:07;;;;;;;;;;;17.60;36.20;;;;;;5115711;28;19996;-64
2022/12/08 06:03:34;;;;;;;;;;;17.60;36.30;;;;;;5094737;28;19919;-64
2022/12/08 06:06:00;;;;;;;;;;;17.60;36.40;;;;;;5098556;28;19924;-64
2022/12/08 06:08:27;;;;;;;;;;;17.60;36.60;;;;;;5100314;27;19927;-65
2022/12/08 06:10:54;;;;;;;;;;;17.70;36.90;;;;;;5106359;28;19920;-65
2022/12/08 06:13:21;;;;;;;;;;;17.70;37.00;;;;;;5097509;28;19927;-64
2022/12/08 06:15:49;;;;;;;;;;;17.70;37.10;;;;;;5101568;28;19969;-64
2022/12/08 06:18:16;;;;;;;;;;;17.70;37.10;;;;;;5098006;27;19988;-64
2022/12/08 06:20:42;;;;;;;;;;;17.70;37.20;;;;;;5097464;28;19926;-65
2022/12/08 06:23:09;;;;;;;;;;;17.80;37.30;;;;;;5129179;27;19919;-64
2022/12/08 06:25:36;;;;;;;;;;;17.80;37.40;;;;;;5113150;27;19927;-64
2022/12/08 06:28:04;;;;;;;;;;;17.80;37.40;;;;;;5135441;27;19972;-64
2022/12/08 06:30:31;;;;;;;;;;;17.80;37.40;;;;;;5115492;27;19919;-64
2022/12/08 06:32:59;;;;;;;;;;;17.80;37.40;;;;;;5117040;27;19926;-64
2022/12/08 06:35:26;;;;;;;;;;;17.90;37.60;;;;;;5135388;27;19919;-64
2022/12/08 06:37:52;;;;;;;;;;;17.90;37.60;;;;;;5133267;27;19920;-64
2022/12/08 06:40:19;;;;;;;;;;;17.90;37.60;;;;;;5116669;27;19926;-65
2022/12/08 06:42:46;;;;;;;;;;;17.90;37.60;;;;;;5116873;27;19923;-64
2022/12/08 06:45:13;;;;;;;;;;;17.90;37.60;;;;;;5108486;28;20366;-64
2022/12/08 06:47:40;;;;;;;;;;;17.90;37.60;;;;;;5096308;28;20411;-64
2022/12/08 06:50:09;;;;;;;;;;;17.90;37.70;;;;;;5111142;28;19920;-65
2022/12/08 06:52:35;;;;;;;;;;;17.90;37.70;;;;;;5134411;27;19938;-65
2022/12/08 06:55:02;;;;;;;;;;;18.00;37.80;;;;;;5133212;27;19926;-63
2022/12/08 06:57:29;;;;;;;;;;;17.90;37.80;;;;;;5134848;27;19919;-64
2022/12/08 06:59:56;;;;;;;;;;;18.00;37.80;;;;;;5134620;27;19920;-63
2022/12/08 07:02:22;;;;;;;;;;;17.90;37.80;;;;;;5116733;28;19933;-64
2022/12/08 07:04:49;;;;;;;;;;;18.00;37.90;;;;;;5119943;28;19919;-65
2022/12/08 07:07:17;;;;;;;;;;;18.00;37.90;;;;;;5112785;28;19965;-63
2022/12/08 07:09:44;;;;;;;;;;;18.00;37.90;;;;;;5113807;28;19920;-64
2022/12/08 07:12:11;;;;;;;;;;;18.00;37.90;;;;;;5094144;28;19920;-65
2022/12/08 07:14:38;;;;;;;;;;;18.00;37.90;;;;;;5114693;28;19920;-65
2022/12/08 07:17:04;;;;;;;;;;;18.00;37.90;;;;;;5112330;27;19927;-64
2022/12/08 07:19:31;;;;;;;;;;;18.00;38.00;;;;;;5110979;28;20005;-65
2022/12/08 07:21:58;;;;;;;;;;;18.00;37.90;;;;;;5099390;28;19920;-65
2022/12/08 07:24:26;;;;;;;;;;;18.00;38.00;;;;;;5100701;28;19927;-65
2022/12/08 07:26:53;;;;;;;;;;;18.00;38.00;;;;;;5100231;28;19924;-65
2022/12/08 07:29:20;;;;;;;;;;;18.10;38.10;;;;;;5105724;28;19920;-64
2022/12/08 07:31:47;;;;;;;;;;;18.10;38.10;;;;;;5118316;28;19919;-65
2022/12/08 07:34:14;;;;;;;;;;;18.10;38.10;;;;;;5104012;27;20365;-64
2022/12/08 07:36:41;;;;;;;;;;;18.10;38.10;;;;;;5120620;27;19926;-65
2022/12/08 07:39:07;;;;;;;;;;;18.10;38.20;;;;;;5117501;27;19919;-65
2022/12/08 07:41:36;;;;;;;;;;;18.10;38.20;;;;;;5120301;27;19945;-65
2022/12/08 07:44:03;;;;;;;;;;;18.10;38.20;;;;;;5118779;27;19919;-65
2022/12/08 07:46:29;;;;;;;;;;;18.10;38.20;;;;;;5118434;27;19919;-65
2022/12/08 07:48:57;;;;;;;;;;;18.10;38.20;;;;;;5119975;27;19927;-65
2022/12/08 07:51:24;;;;;;;;;;;18.10;38.20;;;;;;5117447;27;19923;-65
2022/12/08 07:53:51;;;;;;;;;;;18.10;38.30;;;;;;5120128;27;20046;-64
2022/12/08 07:56:18;;;;;;;;;;;18.10;38.30;;;;;;5136176;27;19919;-65
2022/12/08 07:58:46;;;;;;;;;;;18.10;38.20;;;;;;5136513;27;20349;-65
2022/12/08 08:01:23;;;;;;;;;;;18.10;38.30;;;;;;5101480;27;19927;-65
2022/12/08 08:03:50;;;;;;;;;;;18.10;38.30;;;;;;5117667;27;19923;-65
2022/12/08 08:06:16;;;;;;;;;;;18.10;38.30;;;;;;5102297;28;19938;-64
2022/12/08 08:08:43;;;;;;;;;;;18.10;38.30;;;;;;5114775;28;19924;-64
2022/12/08 08:11:10;;;;;;;;;;;18.10;38.30;;;;;;5100022;28;19927;-64
2022/12/08 08:13:37;;;;;;;;;;;18.10;38.40;;;;;;5100275;28;19924;-63
2022/12/08 08:16:05;;;;;;;;;;;18.10;38.40;;;;;;5118652;27;19951;-63
2022/12/08 08:18:32;;;;;;;;;;;18.20;38.50;;;;;;5119655;27;19919;-62
2022/12/08 08:20:59;;;;;;;;;;;18.20;38.50;;;;;;5138086;27;19928;-65
2022/12/08 08:23:26;;;;;;;;;;;18.20;38.50;;;;;;5120095;27;19950;-63
2022/12/08 08:25:52;;;;;;;;;;;18.20;38.60;;;;;;5119434;27;19923;-65
2022/12/08 08:28:19;;;;;;;;;;;18.20;38.60;;;;;;5118700;27;19964;-63
2022/12/08 08:30:46;;;;;;;;;;;18.20;38.60;;;;;;5119798;27;19971;-63
2022/12/08 08:33:15;;;;;;;;;;;18.20;38.60;;;;;;5119984;27;19919;-64
2022/12/08 08:35:42;;;;;;;;;;;18.30;38.70;;;;;;5119772;27;19919;-64
2022/12/08 08:38:08;;;;;;;;;;;18.30;38.70;;;;;;5119634;27;20022;-65
2022/12/08 08:40:35;;;;;;;;;;;18.30;38.80;;;;;;5137885;27;19920;-63
2022/12/08 08:43:02;;;;;;;;;;;18.30;38.70;;;;;;5119557;27;19919;-63
2022/12/08 08:45:29;;;;;;;;;;;18.30;38.80;;;;;;5119119;27;19919;-64
2022/12/08 08:47:55;;;;;;;;;;;18.30;38.80;;;;;;5119279;27;19919;-64
2022/12/08 08:50:27;;;;;;;;;;;18.30;38.80;;;;;;5118973;27;19968;-63
2022/12/08 08:52:53;;;;;;;;;;;18.30;38.80;;;;;;5119301;27;19927;-64
2022/12/08 08:55:20;;;;;;;;;;;18.40;38.90;;;;;;5119041;27;19919;-64
2022/12/08 08:57:47;;;;;;;;;;;18.40;38.90;;;;;;5118520;27;20303;-64
2022/12/08 09:00:14;;;;;;;;;;;18.30;38.80;;;;;;5119117;27;19980;-63
2022/12/08 09:02:41;;;;;;;;;;;18.40;38.90;;;;;;5119619;27;20334;-65
2022/12/08 09:05:08;;;;;;;;;;;18.40;38.90;;;;;;5119446;27;19920;-66
2022/12/08 09:07:36;;;;;;;;;;;18.40;39.00;;;;;;5118556;27;19923;-67
2022/12/08 09:10:04;;;;;;;;;;;18.40;39.00;;;;;;5136911;27;20376;-64
2022/12/08 09:12:31;;;;;;;;;;;18.40;39.00;;;;;;5118586;27;19919;-65
2022/12/08 09:14:57;;;;;;;;;;;18.40;39.00;;;;;;5137007;27;19930;-64
2022/12/08 09:17:24;;;;;;;;;;;18.40;39.00;;;;;;5137026;27;19926;-65
2022/12/08 09:19:51;;;;;;;;;;;18.40;39.00;;;;;;5119463;27;19974;-64
2022/12/08 09:22:18;;;;;;;;;;;18.40;39.00;;;;;;5118766;27;19923;-64
2022/12/08 09:24:46;;;;;;;;;;;18.50;39.10;;;;;;5118304;27;20018;-64
2022/12/08 09:27:13;;;;;;;;;;;18.50;39.00;;;;;;5118241;27;20021;-64
2022/12/08 09:29:39;;;;;;;;;;;18.50;39.10;;;;;;5115589;27;19926;-65
2022/12/08 09:32:06;;;;;;;;;;;18.50;39.10;;;;;;5118531;27;19919;-64
2022/12/08 09:34:33;;;;;;;;;;;18.50;39.10;;;;;;5118227;27;19919;-66
2022/12/08 09:37:00;;;;;;;;;;;18.50;39.10;;;;;;5117933;27;19939;-65
2022/12/08 09:39:26;;;;;;;;;;;18.50;39.10;;;;;;5135765;27;19920;-65
2022/12/08 09:41:56;;;;;;;;;;;18.50;39.10;;;;;;5118064;27;19923;-64
2022/12/08 09:44:37;;;;;;;;;;;18.50;39.10;;;;;;5118205;27;19941;-64
2022/12/08 09:47:05;;;;;;;;;;;18.50;39.20;;;;;;5111950;28;19974;-64
2022/12/08 09:49:33;;;;;;;;;;;18.50;39.20;;;;;;5097724;28;19920;-64
2022/12/08 09:52:00;;;;;;;;;;;18.50;39.20;;;;;;5098173;28;19926;-64
2022/12/08 09:54:29;;;;;;;;;;;18.50;39.10;;;;;;5113533;28;19920;-66
2022/12/08 09:56:58;;;;;;;;;;;18.50;39.20;;;;;;5115918;28;19919;-64
2022/12/08 09:59:25;;;;;;;;;;;18.50;39.20;;;;;;5096740;28;19969;-64
2022/12/08 10:01:52;;;;;;;;;;;18.50;39.20;;;;;;5114341;27;19919;-67
2022/12/08 10:04:20;;;;;;;;;;;18.60;39.30;;;;;;5117281;27;19923;-67
2022/12/08 10:06:48;;;;;;;;;;;18.50;39.20;;;;;;5117672;27;19984;-67
2022/12/08 10:09:17;;;;;;;;;;;18.50;39.20;;;;;;5117681;27;19926;-68
2022/12/08 10:11:45;;;;;;;;;;;18.60;39.30;;;;;;5117908;27;19968;-66
2022/12/08 10:14:16;;;;;;;;;;;18.60;39.30;;;;;;5117695;27;19951;-66
2022/12/08 10:16:44;;;;;;;;;;;18.60;39.30;;;;;;5135980;27;19919;-66
2022/12/08 10:19:12;;;;;;;;;;;18.60;39.30;;;;;;5117454;27;19926;-67
2022/12/08 10:21:39;;;;;;;;;;;18.60;39.30;;;;;;5118019;27;19920;-66
2022/12/08 10:24:09;;;;;;;;;;;18.60;39.30;;;;;;5117398;27;19926;-65
2022/12/08 10:26:36;;;;;;;;;;;18.60;39.30;;;;;;5135755;27;19919;-66
2022/12/08 10:29:02;;;;;;;;;;;18.60;39.30;;;;;;5117566;27;20016;-65
2022/12/08 10:31:31;;;;;;;;;;;18.60;39.30;;;;;;5116961;27;19926;-65
2022/12/08 10:33:58;;;;;;;;;;;18.60;39.30;;;;;;5116947;27;20430;-65
2022/12/08 10:36:30;;;;;;;;;;;18.60;39.30;;;;;;5117209;27;19926;-65
2022/12/08 10:38:57;;;;;;;;;;;18.60;39.30;;;;;;5117248;27;20011;-64
2022/12/08 10:41:24;;;;;;;;;;;18.60;39.30;;;;;;5117201;27;19926;-64
2022/12/08 10:43:59;;;;;;;;;;;18.60;39.30;;;;;;5117352;27;20303;-65
2022/12/08 10:46:26;;;;;;;;;;;18.60;39.30;;;;;;5117309;27;19919;-65
2022/12/08 10:48:54;;;;;;;;;;;18.60;39.30;;;;;;5117820;27;19923;-66
2022/12/08 10:51:25;;;;;;;;;;;18.60;39.40;;;;;;5135203;27;19927;-67
2022/12/08 10:53:52;;;;;;;;;;;18.60;39.40;;;;;;5116521;28;19926;-65
2022/12/08 10:56:19;;;;;;;;;;;18.60;39.40;;;;;;5135251;27;19931;-65
2022/12/08 10:58:46;;;;;;;;;;;18.70;39.50;;;;;;5116603;27;19919;-66
2022/12/08 11:01:16;;;;;;;;;;;18.60;39.40;;;;;;5116166;27;21869;-65
2022/12/08 11:03:44;;;;;;;;;;;18.70;39.50;;;;;;5117239;28;19923;-67
2022/12/08 11:06:15;;;;;;;;;;;18.70;39.50;;;;;;5116782;28;19980;-67
2022/12/08 11:08:51;;;;;;;;;;;18.70;39.50;;;;;;5117053;28;19983;-67
2022/12/08 11:11:18;;;;;;;;;;;18.70;39.50;;;;;;5116789;28;19927;-65
2022/12/08 11:13:45;;;;;;;;;;;18.70;39.50;;;;;;5134938;28;19931;-65
2022/12/08 11:16:12;;;;;;;;;;;18.70;39.50;;;;;;5116982;28;20237;-64
2022/12/08 11:18:39;;;;;;;;;;;18.70;39.50;;;;;;5134437;28;20318;-65
2022/12/08 11:21:06;;;;;;;;;;;18.70;39.50;;;;;;5117119;28;19923;-66
2022/12/08 11:23:36;;;;;;;;;;;18.70;39.50;;;;;;5116266;28;20015;-66
2022/12/08 11:26:05;;;;;;;;;;;18.70;39.50;;;;;;5116604;28;19920;-66
2022/12/08 11:28:31;;;;;;;;;;;18.70;39.50;;;;;;5117042;28;19920;-65
2022/12/08 11:30:59;;;;;;;;;;;18.70;39.50;;;;;;5116612;28;19941;-66
2022/12/08 11:33:27;;;;;;;;;;;18.70;39.50;;;;;;5134693;28;19919;-65
2022/12/08 11:35:54;;;;;;;;;;;18.70;39.50;;;;;;5117308;28;19919;-64
2022/12/08 11:38:22;;;;;;;;;;;18.70;39.60;;;;;;5100424;28;19969;-63
2022/12/08 11:40:51;;;;;;;;;;;18.70;39.50;;;;;;5095858;28;19923;-67
2022/12/08 11:43:19;;;;;;;;;;;18.70;39.50;;;;;;5096097;28;19924;-66
2022/12/08 11:45:46;;;;;;;;;;;18.70;39.60;;;;;;5114265;28;19920;-67
2022/12/08 11:48:14;;;;;;;;;;;18.70;39.50;;;;;;5096309;28;20262;-66
2022/12/08 11:50:42;;;;;;;;;;;18.70;39.50;;;;;;5096026;28;19920;-66
2022/12/08 11:53:11;;;;;;;;;;;18.70;39.50;;;;;;5113876;28;20377;-66
2022/12/08 11:55:38;;;;;;;;;;;18.80;39.60;;;;;;5096037;28;20426;-66
2022/12/08 11:58:11;;;;;;;;;;;18.80;39.60;;;;;;5095903;28;20010;-66
2022/12/08 12:00:38;;;;;;;;;;;18.80;39.60;;;;;;5096678;28;19984;-67
2022/12/08 12:03:05;;;;;;;;;;;18.80;39.60;;;;;;5098520;28;19945;-66
2022/12/08 12:05:33;;;;;;;;;;;18.80;39.60;;;;;;5116780;28;19920;-66
2022/12/08 12:08:04;;;;;;;;;;;18.80;39.60;;;;;;5099454;28;19977;-66
2022/12/08 12:10:41;;;;;;;;;;;18.80;39.60;;;;;;5100183;28;19923;-66
2022/12/08 12:13:09;;;;;;;;;;;18.80;39.60;;;;;;5099508;28;19945;-66
2022/12/08 12:15:51;;;;;;;;;;;18.80;39.60;;;;;;5117246;28;20273;-70
2022/12/08 12:18:22;;;;;;;;;;;18.80;39.60;;;;;;5117683;28;19920;-66
2022/12/08 12:20:50;;;;;;;;;;;18.80;39.60;;;;;;5099202;28;19920;-67
2022/12/08 12:23:18;;;;;;;;;;;18.80;39.70;;;;;;5099613;28;19920;-67
2022/12/08 12:25:54;;;;;;;;;;;18.80;39.70;;;;;;5099286;28;19919;-68
2022/12/08 12:28:22;;;;;;;;;;;18.80;39.70;;;;;;5100238;28;19927;-74
2022/12/08 12:30:51;;;;;;;;;;;18.80;39.70;;;;;;5118143;28;19920;-73
2022/12/08 12:33:19;;;;;;;;;;;18.80;39.80;;;;;;5100259;28;19965;-77
2022/12/08 12:35:46;;;;;;;;;;;18.80;39.80;;;;;;5117744;28;19919;-74
2022/12/08 12:40:59;;;;;;;;;;;18.80;39.90;;;;;;5098553;28;19919;-74
2022/12/08 12:43:28;;;;;;;;;;;18.90;40.00;;;;;;5099924;28;19926;-74
2022/12/08 12:46:10;;;;;;;;;;;18.90;40.00;;;;;;5099116;28;19920;-76
2022/12/08 12:48:38;;;;;;;;;;;18.90;40.00;;;;;;5099487;28;19980;-76
2022/12/08 12:51:16;;;;;;;;;;;18.90;40.00;;;;;;5117963;28;19920;-73
2022/12/08 12:53:49;;;;;;;;;;;19.00;40.00;;;;;;5116830;28;19965;-73
2022/12/08 12:56:35;;;;;;;;;;;19.00;40.00;;;;;;5100198;28;19941;-72
2022/12/08 12:59:08;;;;;;;;;;;19.00;40.00;;;;;;5117320;28;19927;-73
2022/12/08 13:01:50;;;;;;;;;;;19.10;40.10;;;;;;5099894;28;19919;-72
2022/12/08 13:04:18;;;;;;;;;;;19.10;40.10;;;;;;5097062;28;19920;-72
2022/12/08 13:06:45;;;;;;;;;;;19.10;40.10;;;;;;5099759;28;19919;-72
2022/12/08 13:09:19;;;;;;;;;;;19.10;40.10;;;;;;5098616;28;19920;-71
2022/12/08 13:11:47;;;;;;;;;;;19.10;40.10;;;;;;5104967;27;19920;-73
2022/12/08 13:14:24;;;;;;;;;;;19.10;40.10;;;;;;5119708;27;20394;-72
2022/12/08 13:16:50;;;;;;;;;;;19.10;40.10;;;;;;5119614;27;19923;-71
2022/12/08 13:19:19;;;;;;;;;;;19.10;40.10;;;;;;5137154;27;19923;-71
2022/12/08 13:21:46;;;;;;;;;;;19.10;40.10;;;;;;5118522;27;19919;-75
2022/12/08 13:24:13;;;;;;;;;;;19.10;40.20;;;;;;5137118;27;19927;-68
2022/12/08 13:26:43;;;;;;;;;;;19.10;40.10;;;;;;5118467;27;19976;-68
2022/12/08 13:29:20;;;;;;;;;;;19.10;40.10;;;;;;5119668;27;19920;-70
2022/12/08 13:31:48;;;;;;;;;;;19.10;40.10;;;;;;5119099;27;19919;-70
2022/12/08 13:34:16;;;;;;;;;;;19.10;40.20;;;;;;5136503;27;19919;-69
2022/12/08 13:36:47;;;;;;;;;;;19.10;40.20;;;;;;5138264;27;19950;-73
2022/12/08 13:39:15;;;;;;;;;;;19.10;40.20;;;;;;5118792;27;19969;-71
2022/12/08 13:41:43;;;;;;;;;;;19.10;40.20;;;;;;5119499;27;19919;-71
2022/12/08 13:44:12;;;;;;;;;;;19.20;40.30;;;;;;5136251;27;19923;-74
2022/12/08 13:46:40;;;;;;;;;;;19.20;40.40;;;;;;5119108;27;19975;-74
2022/12/08 13:49:07;;;;;;;;;;;19.10;40.30;;;;;;5117981;27;19919;-72
2022/12/08 13:51:35;;;;;;;;;;;19.20;40.40;;;;;;5137127;27;19924;-72
2022/12/08 13:54:04;;;;;;;;;;;19.20;40.40;;;;;;5119129;27;20261;-71
2022/12/08 13:56:31;;;;;;;;;;;19.20;40.40;;;;;;5120198;27;19920;-70
2022/12/08 13:59:08;;;;;;;;;;;19.20;40.50;;;;;;5119247;27;19927;-70
2022/12/08 14:01:36;;;;;;;;;;;19.10;40.40;;;;;;5119247;27;19972;-72
2022/12/08 14:04:02;;;;;;;;;;;19.10;40.40;;;;;;5119362;27;19923;-73
2022/12/08 14:06:30;;;;;;;;;;;19.10;40.40;;;;;;5119060;27;19968;-72
2022/12/08 14:08:58;;;;;;;;;;;19.10;40.40;;;;;;5119498;27;20273;-71
2022/12/08 14:11:33;;;;;;;;;;;19.20;40.50;;;;;;5119049;27;19919;-71
2022/12/08 14:14:04;;;;;;;;;;;19.20;40.50;;;;;;5120374;27;19919;-73
2022/12/08 14:16:40;;;;;;;;;;;19.20;40.50;;;;;;5101613;28;19923;-77
2022/12/08 14:19:07;;;;;;;;;;;19.10;40.50;;;;;;5097768;28;19927;-72
2022/12/08 14:21:34;;;;;;;;;;;19.10;41.10;;;;;;5114829;28;19920;-72
2022/12/08 14:24:03;;;;;;;;;;;19.10;40.50;;;;;;5115554;28;19931;-73
2022/12/08 14:26:35;;;;;;;;;;;19.10;40.50;;;;;;5096951;28;20327;-72
2022/12/08 14:29:01;;;;;;;;;;;19.10;40.50;;;;;;5115365;28;19919;-71